sensor_id;sensor_type;location;lat;lon;timestamp;P1;durP1;ratioP1;P2;durP2;ratioP2
9924;SDS011;5001;51.674;7.868;2023-06-14T00:01:35;2.22;;;2.03;;
9924;SDS011;5001;51.674;7.868;2023-06-14T00:04:04;3.53;;;2.33;;
9924;SDS011;5001;51.674;7.868;2023-06-14T00:06:32;4.80;;;2.28;;
9924;SDS011;5001;51.674;7.868;2023-06-14T00:09:00;2.90;;;2.13;;
9924;SDS011;5001;51.674;7.868;2023-06-14T00:11:27;3.38;;;2.42;;
9924;SDS011;5001;51.674;7.868;2023-06-14T00:13:55;4.75;;;1.75;;
9924;SDS011;5001;51.674;7.868;2023-06-14T00:16:23;2.78;;;2.20;;
9924;SDS011;5001;51.674;7.868;2023-06-14T00:18:50;4.07;;;2.70;;
9924;SDS011;5001;51.674;7.868;2023-06-14T00:21:21;2.78;;;2.45;;
9924;SDS011;5001;51.674;7.868;2023-06-14T00:23:48;5.65;;;2.20;;
9924;SDS011;5001;51.674;7.868;2023-06-14T00:26:16;5.15;;;2.45;;
9924;SDS011;5001;51.674;7.868;2023-06-14T00:28:43;3.30;;;2.53;;
9924;SDS011;5001;51.674;7.868;2023-06-14T00:31:10;2.53;;;2.05;;
9924;SDS011;5001;51.674;7.868;2023-06-14T00:33:37;3.35;;;2.20;;
9924;SDS011;5001;51.674;7.868;2023-06-14T00:36:05;2.60;;;1.58;;
9924;SDS011;5001;51.674;7.868;2023-06-14T00:38:32;2.40;;;1.80;;
9924;SDS011;5001;51.674;7.868;2023-06-14T00:41:00;4.47;;;2.13;;
9924;SDS011;5001;51.674;7.868;2023-06-14T00:43:27;2.88;;;2.00;;
9924;SDS011;5001;51.674;7.868;2023-06-14T00:45:54;3.10;;;2.30;;
9924;SDS011;5001;51.674;7.868;2023-06-14T00:48:21;6.45;;;1.80;;
9924;SDS011;5001;51.674;7.868;2023-06-14T00:50:49;3.53;;;2.38;;
9924;SDS011;5001;51.674;7.868;2023-06-14T00:53:19;2.42;;;1.67;;
9924;SDS011;5001;51.674;7.868;2023-06-14T00:55:47;4.80;;;2.20;;
9924;SDS011;5001;51.674;7.868;2023-06-14T00:58:15;3.20;;;1.90;;
9924;SDS011;5001;51.674;7.868;2023-06-14T01:00:43;2.80;;;2.00;;
9924;SDS011;5001;51.674;7.868;2023-06-14T01:03:10;3.42;;;2.10;;
9924;SDS011;5001;51.674;7.868;2023-06-14T01:05:39;2.72;;;1.88;;
9924;SDS011;5001;51.674;7.868;2023-06-14T01:08:15;2.83;;;2.10;;
9924;SDS011;5001;51.674;7.868;2023-06-14T01:10:49;2.80;;;2.00;;
9924;SDS011;5001;51.674;7.868;2023-06-14T01:13:29;2.05;;;1.88;;
9924;SDS011;5001;51.674;7.868;2023-06-14T01:16:01;2.67;;;2.10;;
9924;SDS011;5001;51.674;7.868;2023-06-14T01:18:30;2.63;;;1.95;;
9924;SDS011;5001;51.674;7.868;2023-06-14T01:21:01;3.17;;;2.03;;
9924;SDS011;5001;51.674;7.868;2023-06-14T01:23:32;3.23;;;1.93;;
9924;SDS011;5001;51.674;7.868;2023-06-14T01:26:00;4.00;;;2.10;;
9924;SDS011;5001;51.674;7.868;2023-06-14T01:28:33;3.97;;;1.97;;
9924;SDS011;5001;51.674;7.868;2023-06-14T01:31:02;1.73;;;1.63;;
9924;SDS011;5001;51.674;7.868;2023-06-14T01:33:32;2.85;;;2.20;;
9924;SDS011;5001;51.674;7.868;2023-06-14T01:36:01;2.63;;;1.93;;
9924;SDS011;5001;51.674;7.868;2023-06-14T01:38:30;4.50;;;1.93;;
9924;SDS011;5001;51.674;7.868;2023-06-14T01:41:02;2.67;;;2.13;;
9924;SDS011;5001;51.674;7.868;2023-06-14T01:43:30;3.63;;;2.10;;
9924;SDS011;5001;51.674;7.868;2023-06-14T01:45:59;4.03;;;2.20;;
9924;SDS011;5001;51.674;7.868;2023-06-14T01:48:27;1.90;;;1.80;;
9924;SDS011;5001;51.674;7.868;2023-06-14T01:50:54;5.80;;;2.20;;
9924;SDS011;5001;51.674;7.868;2023-06-14T01:53:21;3.50;;;2.17;;
9924;SDS011;5001;51.674;7.868;2023-06-14T01:55:49;4.33;;;1.97;;
9924;SDS011;5001;51.674;7.868;2023-06-14T01:58:16;3.37;;;1.93;;
9924;SDS011;5001;51.674;7.868;2023-06-14T02:00:43;2.93;;;2.17;;
9924;SDS011;5001;51.674;7.868;2023-06-14T02:03:11;2.33;;;1.90;;
9924;SDS011;5001;51.674;7.868;2023-06-14T02:05:39;3.80;;;2.00;;
9924;SDS011;5001;51.674;7.868;2023-06-14T02:08:06;2.83;;;2.13;;
9924;SDS011;5001;51.674;7.868;2023-06-14T02:10:34;2.80;;;1.70;;
9924;SDS011;5001;51.674;7.868;2023-06-14T02:13:02;3.93;;;1.77;;
9924;SDS011;5001;51.674;7.868;2023-06-14T02:15:29;5.20;;;2.07;;
9924;SDS011;5001;51.674;7.868;2023-06-14T02:18:02;2.77;;;2.00;;
9924;SDS011;5001;51.674;7.868;2023-06-14T02:20:32;2.40;;;1.90;;
9924;SDS011;5001;51.674;7.868;2023-06-14T02:22:59;4.40;;;2.20;;
9924;SDS011;5001;51.674;7.868;2023-06-14T02:25:30;3.17;;;2.40;;
9924;SDS011;5001;51.674;7.868;2023-06-14T02:27:57;3.50;;;1.93;;
9924;SDS011;5001;51.674;7.868;2023-06-14T02:30:31;2.77;;;2.00;;
9924;SDS011;5001;51.674;7.868;2023-06-14T02:32:58;3.17;;;2.30;;
9924;SDS011;5001;51.674;7.868;2023-06-14T02:35:27;6.33;;;2.27;;
9924;SDS011;5001;51.674;7.868;2023-06-14T02:37:54;4.67;;;2.00;;
9924;SDS011;5001;51.674;7.868;2023-06-14T02:40:22;2.53;;;1.73;;
9924;SDS011;5001;51.674;7.868;2023-06-14T02:42:50;2.93;;;1.83;;
9924;SDS011;5001;51.674;7.868;2023-06-14T02:45:17;3.33;;;2.17;;
9924;SDS011;5001;51.674;7.868;2023-06-14T02:47:45;2.43;;;2.10;;
9924;SDS011;5001;51.674;7.868;2023-06-14T02:50:15;1.73;;;1.63;;
9924;SDS011;5001;51.674;7.868;2023-06-14T02:52:43;2.17;;;1.57;;
9924;SDS011;5001;51.674;7.868;2023-06-14T02:55:11;3.80;;;2.13;;
9924;SDS011;5001;51.674;7.868;2023-06-14T02:57:39;2.53;;;2.23;;
9924;SDS011;5001;51.674;7.868;2023-06-14T03:00:08;1.87;;;1.60;;
9924;SDS011;5001;51.674;7.868;2023-06-14T03:02:42;3.93;;;1.97;;
9924;SDS011;5001;51.674;7.868;2023-06-14T03:05:11;2.00;;;1.70;;
9924;SDS011;5001;51.674;7.868;2023-06-14T03:07:40;3.10;;;2.10;;
9924;SDS011;5001;51.674;7.868;2023-06-14T03:10:08;3.97;;;1.97;;
9924;SDS011;5001;51.674;7.868;2023-06-14T03:12:39;1.67;;;1.50;;
9924;SDS011;5001;51.674;7.868;2023-06-14T03:15:10;4.87;;;2.00;;
9924;SDS011;5001;51.674;7.868;2023-06-14T03:17:43;2.83;;;1.90;;
9924;SDS011;5001;51.674;7.868;2023-06-14T03:20:13;2.27;;;2.00;;
9924;SDS011;5001;51.674;7.868;2023-06-14T03:22:42;2.67;;;1.90;;
9924;SDS011;5001;51.674;7.868;2023-06-14T03:25:12;1.77;;;1.60;;
9924;SDS011;5001;51.674;7.868;2023-06-14T03:27:41;1.83;;;1.73;;
9924;SDS011;5001;51.674;7.868;2023-06-14T03:30:09;4.00;;;2.70;;
9924;SDS011;5001;51.674;7.868;2023-06-14T03:32:41;2.37;;;1.80;;
9924;SDS011;5001;51.674;7.868;2023-06-14T03:35:10;2.63;;;1.90;;
9924;SDS011;5001;51.674;7.868;2023-06-14T03:37:44;5.60;;;2.03;;
9924;SDS011;5001;51.674;7.868;2023-06-14T03:40:15;5.13;;;1.70;;
9924;SDS011;5001;51.674;7.868;2023-06-14T03:42:47;3.83;;;1.90;;
9924;SDS011;5001;51.674;7.868;2023-06-14T03:45:15;6.93;;;1.80;;
9924;SDS011;5001;51.674;7.868;2023-06-14T03:47:42;2.13;;;1.67;;
9924;SDS011;5001;51.674;7.868;2023-06-14T03:50:12;3.10;;;2.00;;
9924;SDS011;5001;51.674;7.868;2023-06-14T03:52:40;2.67;;;1.80;;
9924;SDS011;5001;51.674;7.868;2023-06-14T03:55:10;4.57;;;2.50;;
9924;SDS011;5001;51.674;7.868;2023-06-14T03:57:43;1.80;;;1.67;;
9924;SDS011;5001;51.674;7.868;2023-06-14T04:00:13;2.72;;;1.90;;
9924;SDS011;5001;51.674;7.868;2023-06-14T04:02:42;3.50;;;2.35;;
9924;SDS011;5001;51.674;7.868;2023-06-14T04:05:10;3.22;;;2.03;;
9924;SDS011;5001;51.674;7.868;2023-06-14T04:07:43;2.78;;;1.88;;
9924;SDS011;5001;51.674;7.868;2023-06-14T04:10:12;3.33;;;1.90;;
9924;SDS011;5001;51.674;7.868;2023-06-14T04:12:40;2.35;;;2.05;;
9924;SDS011;5001;51.674;7.868;2023-06-14T04:15:10;2.42;;;1.88;;
9924;SDS011;5001;51.674;7.868;2023-06-14T04:17:49;3.25;;;1.80;;
9924;SDS011;5001;51.674;7.868;2023-06-14T04:20:18;3.78;;;2.03;;
9924;SDS011;5001;51.674;7.868;2023-06-14T04:22:46;2.33;;;1.80;;
9924;SDS011;5001;51.674;7.868;2023-06-14T04:25:15;2.67;;;2.30;;
9924;SDS011;5001;51.674;7.868;2023-06-14T04:27:50;2.30;;;1.70;;
9924;SDS011;5001;51.674;7.868;2023-06-14T04:30:20;2.10;;;1.90;;
9924;SDS011;5001;51.674;7.868;2023-06-14T04:32:52;3.35;;;1.90;;
9924;SDS011;5001;51.674;7.868;2023-06-14T04:35:20;2.63;;;1.90;;
9924;SDS011;5001;51.674;7.868;2023-06-14T04:37:50;6.65;;;1.80;;
9924;SDS011;5001;51.674;7.868;2023-06-14T04:40:20;2.60;;;1.80;;
9924;SDS011;5001;51.674;7.868;2023-06-14T04:42:48;3.67;;;2.13;;
9924;SDS011;5001;51.674;7.868;2023-06-14T04:45:17;3.80;;;2.00;;
9924;SDS011;5001;51.674;7.868;2023-06-14T04:47:45;2.40;;;2.08;;
9924;SDS011;5001;51.674;7.868;2023-06-14T04:50:12;2.63;;;1.55;;
9924;SDS011;5001;51.674;7.868;2023-06-14T04:52:39;3.47;;;1.83;;
9924;SDS011;5001;51.674;7.868;2023-06-14T04:55:09;2.22;;;2.00;;
9924;SDS011;5001;51.674;7.868;2023-06-14T04:57:36;2.33;;;1.83;;
9924;SDS011;5001;51.674;7.868;2023-06-14T05:00:05;4.22;;;2.22;;
9924;SDS011;5001;51.674;7.868;2023-06-14T05:02:34;3.65;;;2.00;;
9924;SDS011;5001;51.674;7.868;2023-06-14T05:05:04;2.78;;;1.95;;
9924;SDS011;5001;51.674;7.868;2023-06-14T05:07:37;2.15;;;1.95;;
9924;SDS011;5001;51.674;7.868;2023-06-14T05:10:08;2.42;;;1.75;;
9924;SDS011;5001;51.674;7.868;2023-06-14T05:12:36;3.55;;;1.70;;
9924;SDS011;5001;51.674;7.868;2023-06-14T05:15:05;5.45;;;2.20;;
9924;SDS011;5001;51.674;7.868;2023-06-14T05:17:34;8.00;;;2.35;;
9924;SDS011;5001;51.674;7.868;2023-06-14T05:20:02;1.90;;;1.80;;
9924;SDS011;5001;51.674;7.868;2023-06-14T05:22:30;3.97;;;2.22;;
9924;SDS011;5001;51.674;7.868;2023-06-14T05:24:58;2.67;;;1.75;;
9924;SDS011;5001;51.674;7.868;2023-06-14T05:27:25;4.32;;;2.10;;
9924;SDS011;5001;51.674;7.868;2023-06-14T05:29:53;2.33;;;1.90;;
9924;SDS011;5001;51.674;7.868;2023-06-14T05:32:25;5.55;;;2.45;;
9924;SDS011;5001;51.674;7.868;2023-06-14T05:34:53;2.00;;;1.73;;
9924;SDS011;5001;51.674;7.868;2023-06-14T05:37:20;6.20;;;1.80;;
9924;SDS011;5001;51.674;7.868;2023-06-14T05:39:47;2.83;;;1.60;;
9924;SDS011;5001;51.674;7.868;2023-06-14T05:42:14;4.93;;;1.90;;
9924;SDS011;5001;51.674;7.868;2023-06-14T05:44:41;4.30;;;1.80;;
9924;SDS011;5001;51.674;7.868;2023-06-14T05:47:08;2.20;;;1.75;;
9924;SDS011;5001;51.674;7.868;2023-06-14T05:49:35;4.13;;;2.75;;
9924;SDS011;5001;51.674;7.868;2023-06-14T05:52:02;1.40;;;1.30;;
9924;SDS011;5001;51.674;7.868;2023-06-14T05:54:30;2.22;;;1.67;;
9924;SDS011;5001;51.674;7.868;2023-06-14T05:56:57;3.13;;;1.70;;
9924;SDS011;5001;51.674;7.868;2023-06-14T05:59:28;3.47;;;1.90;;
9924;SDS011;5001;51.674;7.868;2023-06-14T06:01:55;4.00;;;2.08;;
9924;SDS011;5001;51.674;7.868;2023-06-14T06:04:24;2.55;;;1.92;;
9924;SDS011;5001;51.674;7.868;2023-06-14T06:06:53;3.80;;;1.92;;
9924;SDS011;5001;51.674;7.868;2023-06-14T06:09:20;6.30;;;1.80;;
9924;SDS011;5001;51.674;7.868;2023-06-14T06:11:50;2.20;;;1.88;;
9924;SDS011;5001;51.674;7.868;2023-06-14T06:14:19;4.32;;;1.77;;
9924;SDS011;5001;51.674;7.868;2023-06-14T06:16:47;4.65;;;2.35;;
9924;SDS011;5001;51.674;7.868;2023-06-14T06:19:14;3.15;;;1.95;;
9924;SDS011;5001;51.674;7.868;2023-06-14T06:21:41;2.60;;;1.92;;
9924;SDS011;5001;51.674;7.868;2023-06-14T06:24:08;2.63;;;1.80;;
9924;SDS011;5001;51.674;7.868;2023-06-14T06:26:38;3.85;;;2.10;;
9924;SDS011;5001;51.674;7.868;2023-06-14T06:29:07;3.35;;;1.85;;
9924;SDS011;5001;51.674;7.868;2023-06-14T06:31:35;5.47;;;2.08;;
9924;SDS011;5001;51.674;7.868;2023-06-14T06:34:02;2.47;;;1.80;;
9924;SDS011;5001;51.674;7.868;2023-06-14T06:36:30;2.92;;;1.65;;
9924;SDS011;5001;51.674;7.868;2023-06-14T06:38:57;4.40;;;1.90;;
9924;SDS011;5001;51.674;7.868;2023-06-14T06:41:24;2.33;;;1.90;;
9924;SDS011;5001;51.674;7.868;2023-06-14T06:43:52;1.75;;;1.63;;
9924;SDS011;5001;51.674;7.868;2023-06-14T06:46:19;9.63;;;1.90;;
9924;SDS011;5001;51.674;7.868;2023-06-14T06:48:46;3.83;;;1.90;;
9924;SDS011;5001;51.674;7.868;2023-06-14T06:51:14;2.60;;;1.70;;
9924;SDS011;5001;51.674;7.868;2023-06-14T06:53:42;2.90;;;1.55;;
9924;SDS011;5001;51.674;7.868;2023-06-14T06:56:16;3.28;;;1.70;;
9924;SDS011;5001;51.674;7.868;2023-06-14T06:58:48;2.70;;;1.75;;
9924;SDS011;5001;51.674;7.868;2023-06-14T07:01:16;2.65;;;1.40;;
9924;SDS011;5001;51.674;7.868;2023-06-14T07:03:44;2.08;;;1.45;;
9924;SDS011;5001;51.674;7.868;2023-06-14T07:06:11;2.72;;;1.40;;
9924;SDS011;5001;51.674;7.868;2023-06-14T07:08:39;1.75;;;1.25;;
9924;SDS011;5001;51.674;7.868;2023-06-14T07:11:06;2.22;;;1.45;;
9924;SDS011;5001;51.674;7.868;2023-06-14T07:13:33;1.55;;;1.20;;
9924;SDS011;5001;51.674;7.868;2023-06-14T07:16:03;1.27;;;1.17;;
9924;SDS011;5001;51.674;7.868;2023-06-14T07:18:31;1.42;;;1.33;;
9924;SDS011;5001;51.674;7.868;2023-06-14T07:20:58;1.65;;;1.20;;
9924;SDS011;5001;51.674;7.868;2023-06-14T07:23:26;1.60;;;1.25;;
9924;SDS011;5001;51.674;7.868;2023-06-14T07:25:53;1.05;;;1.00;;
9924;SDS011;5001;51.674;7.868;2023-06-14T07:28:20;1.38;;;1.00;;
9924;SDS011;5001;51.674;7.868;2023-06-14T07:30:48;1.63;;;1.25;;
9924;SDS011;5001;51.674;7.868;2023-06-14T07:33:15;1.65;;;1.35;;
9924;SDS011;5001;51.674;7.868;2023-06-14T07:35:42;1.40;;;1.20;;
9924;SDS011;5001;51.674;7.868;2023-06-14T07:38:09;0.90;;;0.90;;
9924;SDS011;5001;51.674;7.868;2023-06-14T07:40:37;1.23;;;1.10;;
9924;SDS011;5001;51.674;7.868;2023-06-14T07:43:04;0.80;;;0.80;;
9924;SDS011;5001;51.674;7.868;2023-06-14T07:45:32;3.08;;;1.38;;
9924;SDS011;5001;51.674;7.868;2023-06-14T07:47:59;1.48;;;0.90;;
9924;SDS011;5001;51.674;7.868;2023-06-14T07:50:27;4.90;;;1.20;;
9924;SDS011;5001;51.674;7.868;2023-06-14T07:52:55;2.50;;;1.40;;
9924;SDS011;5001;51.674;7.868;2023-06-14T07:55:22;0.85;;;0.85;;
9924;SDS011;5001;51.674;7.868;2023-06-14T07:57:49;0.95;;;0.88;;
9924;SDS011;5001;51.674;7.868;2023-06-14T08:00:16;1.02;;;0.90;;
9924;SDS011;5001;51.674;7.868;2023-06-14T08:02:45;2.17;;;0.80;;
9924;SDS011;5001;51.674;7.868;2023-06-14T08:05:12;0.70;;;0.70;;
9924;SDS011;5001;51.674;7.868;2023-06-14T08:07:43;1.33;;;0.80;;
9924;SDS011;5001;51.674;7.868;2023-06-14T08:10:11;1.55;;;0.90;;
9924;SDS011;5001;51.674;7.868;2023-06-14T08:12:39;1.73;;;0.80;;
9924;SDS011;5001;51.674;7.868;2023-06-14T08:15:06;0.68;;;0.68;;
9924;SDS011;5001;51.674;7.868;2023-06-14T08:17:40;1.00;;;0.85;;
9924;SDS011;5001;51.674;7.868;2023-06-14T08:20:11;0.90;;;0.90;;
9924;SDS011;5001;51.674;7.868;2023-06-14T08:22:40;0.93;;;0.82;;
9924;SDS011;5001;51.674;7.868;2023-06-14T08:25:09;2.33;;;0.98;;
9924;SDS011;5001;51.674;7.868;2023-06-14T08:27:39;1.17;;;0.90;;
9924;SDS011;5001;51.674;7.868;2023-06-14T08:30:06;2.35;;;0.95;;
9924;SDS011;5001;51.674;7.868;2023-06-14T08:32:34;1.83;;;0.90;;
9924;SDS011;5001;51.674;7.868;2023-06-14T08:35:04;1.42;;;1.25;;
9924;SDS011;5001;51.674;7.868;2023-06-14T08:37:32;3.83;;;1.30;;
9924;SDS011;5001;51.674;7.868;2023-06-14T08:40:17;1.30;;;1.15;;
9924;SDS011;5001;51.674;7.868;2023-06-14T08:42:53;1.98;;;1.15;;
9924;SDS011;5001;51.674;7.868;2023-06-14T08:45:24;3.42;;;1.20;;
9924;SDS011;5001;51.674;7.868;2023-06-14T08:47:57;1.40;;;1.17;;
9924;SDS011;5001;51.674;7.868;2023-06-14T08:50:27;0.90;;;0.90;;
9924;SDS011;5001;51.674;7.868;2023-06-14T08:52:58;0.82;;;0.80;;
9924;SDS011;5001;51.674;7.868;2023-06-14T08:55:30;1.30;;;1.20;;
9924;SDS011;5001;51.674;7.868;2023-06-14T08:58:03;1.20;;;1.00;;
9924;SDS011;5001;51.674;7.868;2023-06-14T09:00:33;2.53;;;1.08;;
9924;SDS011;5001;51.674;7.868;2023-06-14T09:03:02;1.45;;;1.10;;
9924;SDS011;5001;51.674;7.868;2023-06-14T09:05:41;1.30;;;1.00;;
9924;SDS011;5001;51.674;7.868;2023-06-14T09:08:08;1.20;;;1.10;;
9924;SDS011;5001;51.674;7.868;2023-06-14T09:10:36;1.23;;;1.10;;
9924;SDS011;5001;51.674;7.868;2023-06-14T09:13:04;4.20;;;1.30;;
9924;SDS011;5001;51.674;7.868;2023-06-14T09:15:32;1.83;;;1.20;;
9924;SDS011;5001;51.674;7.868;2023-06-14T09:18:03;0.70;;;0.70;;
9924;SDS011;5001;51.674;7.868;2023-06-14T09:20:30;1.52;;;1.00;;
9924;SDS011;5001;51.674;7.868;2023-06-14T09:23:00;1.20;;;1.10;;
9924;SDS011;5001;51.674;7.868;2023-06-14T09:25:27;3.33;;;1.00;;
9924;SDS011;5001;51.674;7.868;2023-06-14T09:28:09;1.25;;;1.05;;
9924;SDS011;5001;51.674;7.868;2023-06-14T09:30:39;5.38;;;1.20;;
9924;SDS011;5001;51.674;7.868;2023-06-14T09:33:07;1.10;;;1.00;;
9924;SDS011;5001;51.674;7.868;2023-06-14T09:35:35;1.00;;;0.90;;
9924;SDS011;5001;51.674;7.868;2023-06-14T09:38:02;2.10;;;1.15;;
9924;SDS011;5001;51.674;7.868;2023-06-14T09:40:33;1.10;;;1.00;;
9924;SDS011;5001;51.674;7.868;2023-06-14T09:43:03;1.10;;;0.95;;
9924;SDS011;5001;51.674;7.868;2023-06-14T09:45:33;1.33;;;1.00;;
9924;SDS011;5001;51.674;7.868;2023-06-14T09:48:00;2.35;;;1.10;;
9924;SDS011;5001;51.674;7.868;2023-06-14T09:50:33;1.50;;;1.00;;
9924;SDS011;5001;51.674;7.868;2023-06-14T09:53:07;1.52;;;1.02;;
9924;SDS011;5001;51.674;7.868;2023-06-14T09:55:37;1.58;;;1.13;;
9924;SDS011;5001;51.674;7.868;2023-06-14T09:58:08;2.33;;;1.10;;
9924;SDS011;5001;51.674;7.868;2023-06-14T10:00:36;0.90;;;0.88;;
9924;SDS011;5001;51.674;7.868;2023-06-14T10:05:45;2.70;;;1.23;;
9924;SDS011;5001;51.674;7.868;2023-06-14T10:08:15;1.33;;;1.05;;
9924;SDS011;5001;51.674;7.868;2023-06-14T10:10:44;2.80;;;1.20;;
9924;SDS011;5001;51.674;7.868;2023-06-14T10:13:12;1.63;;;1.10;;
9924;SDS011;5001;51.674;7.868;2023-06-14T10:21:58;2.20;;;1.27;;
9924;SDS011;5001;51.674;7.868;2023-06-14T10:27:14;1.13;;;1.02;;
9924;SDS011;5001;51.674;7.868;2023-06-14T10:30:05;1.52;;;1.20;;
9924;SDS011;5001;51.674;7.868;2023-06-14T10:32:34;2.20;;;1.30;;
9924;SDS011;5001;51.674;7.868;2023-06-14T10:35:05;2.20;;;1.40;;
9924;SDS011;5001;51.674;7.868;2023-06-14T10:37:35;1.33;;;1.02;;
9924;SDS011;5001;51.674;7.868;2023-06-14T10:40:02;2.00;;;1.40;;
9924;SDS011;5001;51.674;7.868;2023-06-14T10:42:31;1.50;;;1.40;;
9924;SDS011;5001;51.674;7.868;2023-06-14T10:44:59;1.30;;;1.20;;
9924;SDS011;5001;51.674;7.868;2023-06-14T10:47:28;1.52;;;1.38;;
9924;SDS011;5001;51.674;7.868;2023-06-14T10:50:03;2.38;;;1.20;;
9924;SDS011;5001;51.674;7.868;2023-06-14T10:52:35;1.58;;;1.48;;
9924;SDS011;5001;51.674;7.868;2023-06-14T10:55:15;2.35;;;1.45;;
9924;SDS011;5001;51.674;7.868;2023-06-14T10:57:49;1.58;;;1.48;;
9924;SDS011;5001;51.674;7.868;2023-06-14T11:00:21;3.08;;;1.38;;
9924;SDS011;5001;51.674;7.868;2023-06-14T11:05:49;2.83;;;1.30;;
9924;SDS011;5001;51.674;7.868;2023-06-14T11:11:09;2.20;;;1.60;;
9924;SDS011;5001;51.674;7.868;2023-06-14T11:13:44;1.83;;;1.55;;
9924;SDS011;5001;51.674;7.868;2023-06-14T11:16:14;1.40;;;1.30;;
9924;SDS011;5001;51.674;7.868;2023-06-14T11:18:43;1.38;;;1.27;;
9924;SDS011;5001;51.674;7.868;2023-06-14T11:21:15;2.33;;;1.65;;
9924;SDS011;5001;51.674;7.868;2023-06-14T11:23:48;1.40;;;1.20;;
9924;SDS011;5001;51.674;7.868;2023-06-14T11:26:24;1.60;;;1.45;;
9924;SDS011;5001;51.674;7.868;2023-06-14T11:28:56;2.50;;;1.63;;
9924;SDS011;5001;51.674;7.868;2023-06-14T11:31:24;1.52;;;1.27;;
9924;SDS011;5001;51.674;7.868;2023-06-14T11:33:53;3.55;;;1.45;;
9924;SDS011;5001;51.674;7.868;2023-06-14T11:36:22;2.38;;;1.50;;
9924;SDS011;5001;51.674;7.868;2023-06-14T11:38:50;5.68;;;1.90;;
9924;SDS011;5001;51.674;7.868;2023-06-14T11:41:40;1.48;;;1.38;;
9924;SDS011;5001;51.674;7.868;2023-06-14T11:44:08;2.05;;;1.63;;
9924;SDS011;5001;51.674;7.868;2023-06-14T11:46:35;2.65;;;1.55;;
9924;SDS011;5001;51.674;7.868;2023-06-14T11:49:03;1.83;;;1.40;;
9924;SDS011;5001;51.674;7.868;2023-06-14T11:51:34;1.98;;;1.48;;
9924;SDS011;5001;51.674;7.868;2023-06-14T11:54:02;1.60;;;1.30;;
9924;SDS011;5001;51.674;7.868;2023-06-14T11:56:32;1.50;;;1.40;;
9924;SDS011;5001;51.674;7.868;2023-06-14T11:59:03;1.58;;;1.33;;
9924;SDS011;5001;51.674;7.868;2023-06-14T12:01:35;1.63;;;1.50;;
9924;SDS011;5001;51.674;7.868;2023-06-14T12:04:04;1.58;;;1.48;;
9924;SDS011;5001;51.674;7.868;2023-06-14T12:06:31;1.80;;;1.70;;
9924;SDS011;5001;51.674;7.868;2023-06-14T12:09:02;1.65;;;1.55;;
9924;SDS011;5001;51.674;7.868;2023-06-14T12:11:34;3.42;;;1.80;;
9924;SDS011;5001;51.674;7.868;2023-06-14T12:14:03;2.10;;;1.52;;
9924;SDS011;5001;51.674;7.868;2023-06-14T12:16:32;1.67;;;1.58;;
9924;SDS011;5001;51.674;7.868;2023-06-14T12:19:01;3.25;;;1.75;;
9924;SDS011;5001;51.674;7.868;2023-06-14T12:21:47;1.88;;;1.55;;
9924;SDS011;5001;51.674;7.868;2023-06-14T12:24:18;5.60;;;1.80;;
9924;SDS011;5001;51.674;7.868;2023-06-14T12:26:45;1.50;;;1.40;;
9924;SDS011;5001;51.674;7.868;2023-06-14T12:29:13;3.67;;;1.75;;
9924;SDS011;5001;51.674;7.868;2023-06-14T12:31:40;1.75;;;1.60;;
9924;SDS011;5001;51.674;7.868;2023-06-14T12:34:08;1.70;;;1.60;;
9924;SDS011;5001;51.674;7.868;2023-06-14T12:36:35;2.20;;;1.60;;
9924;SDS011;5001;51.674;7.868;2023-06-14T12:39:08;1.98;;;1.65;;
9924;SDS011;5001;51.674;7.868;2023-06-14T12:41:35;3.47;;;1.80;;
9924;SDS011;5001;51.674;7.868;2023-06-14T12:44:03;2.10;;;1.90;;
9924;SDS011;5001;51.674;7.868;2023-06-14T12:46:31;1.70;;;1.60;;
9924;SDS011;5001;51.674;7.868;2023-06-14T12:48:58;2.08;;;1.60;;
9924;SDS011;5001;51.674;7.868;2023-06-14T12:51:26;1.48;;;1.38;;
9924;SDS011;5001;51.674;7.868;2023-06-14T12:53:53;2.05;;;1.73;;
9924;SDS011;5001;51.674;7.868;2023-06-14T12:56:21;2.38;;;1.67;;
9924;SDS011;5001;51.674;7.868;2023-06-14T12:58:50;2.95;;;1.73;;
9924;SDS011;5001;51.674;7.868;2023-06-14T13:01:17;2.78;;;1.90;;
9924;SDS011;5001;51.674;7.868;2023-06-14T13:03:48;5.55;;;1.83;;
9924;SDS011;5001;51.674;7.868;2023-06-14T13:06:17;2.78;;;1.75;;
9924;SDS011;5001;51.674;7.868;2023-06-14T13:08:47;2.00;;;1.60;;
9924;SDS011;5001;51.674;7.868;2023-06-14T13:11:14;3.70;;;1.60;;
9924;SDS011;5001;51.674;7.868;2023-06-14T13:13:41;1.98;;;1.52;;
9924;SDS011;5001;51.674;7.868;2023-06-14T13:16:08;1.60;;;1.50;;
9924;SDS011;5001;51.674;7.868;2023-06-14T13:18:37;1.63;;;1.52;;
9924;SDS011;5001;51.674;7.868;2023-06-14T13:21:04;3.85;;;1.60;;
9924;SDS011;5001;51.674;7.868;2023-06-14T13:23:31;4.97;;;1.67;;
9924;SDS011;5001;51.674;7.868;2023-06-14T13:25:58;2.28;;;1.60;;
9924;SDS011;5001;51.674;7.868;2023-06-14T13:28:29;1.50;;;1.40;;
9924;SDS011;5001;51.674;7.868;2023-06-14T13:30:58;1.48;;;1.38;;
9924;SDS011;5001;51.674;7.868;2023-06-14T13:33:25;1.55;;;1.45;;
9924;SDS011;5001;51.674;7.868;2023-06-14T13:35:52;1.67;;;1.42;;
9924;SDS011;5001;51.674;7.868;2023-06-14T13:38:19;2.25;;;1.60;;
9924;SDS011;5001;51.674;7.868;2023-06-14T13:40:46;1.75;;;1.60;;
9924;SDS011;5001;51.674;7.868;2023-06-14T13:43:13;1.52;;;1.40;;
9924;SDS011;5001;51.674;7.868;2023-06-14T13:45:40;6.07;;;1.75;;
9924;SDS011;5001;51.674;7.868;2023-06-14T13:48:07;2.15;;;1.52;;
9924;SDS011;5001;51.674;7.868;2023-06-14T13:50:34;3.90;;;1.85;;
9924;SDS011;5001;51.674;7.868;2023-06-14T13:53:01;1.70;;;1.60;;
9924;SDS011;5001;51.674;7.868;2023-06-14T13:55:29;2.42;;;1.70;;
9924;SDS011;5001;51.674;7.868;2023-06-14T13:57:56;3.05;;;1.75;;
9924;SDS011;5001;51.674;7.868;2023-06-14T14:00:24;1.88;;;1.63;;
9924;SDS011;5001;51.674;7.868;2023-06-14T14:02:51;4.97;;;1.60;;
9924;SDS011;5001;51.674;7.868;2023-06-14T14:05:18;2.72;;;1.58;;
9924;SDS011;5001;51.674;7.868;2023-06-14T14:07:47;5.28;;;1.85;;
9924;SDS011;5001;51.674;7.868;2023-06-14T14:10:14;1.50;;;1.40;;
9924;SDS011;5001;51.674;7.868;2023-06-14T14:12:41;1.80;;;1.40;;
9924;SDS011;5001;51.674;7.868;2023-06-14T14:15:08;3.58;;;2.35;;
9924;SDS011;5001;51.674;7.868;2023-06-14T14:17:39;1.92;;;1.73;;
9924;SDS011;5001;51.674;7.868;2023-06-14T14:20:07;1.80;;;1.40;;
9924;SDS011;5001;51.674;7.868;2023-06-14T14:22:35;1.52;;;1.40;;
9924;SDS011;5001;51.674;7.868;2023-06-14T14:25:02;1.95;;;1.75;;
9924;SDS011;5001;51.674;7.868;2023-06-14T14:27:29;2.05;;;1.60;;
9924;SDS011;5001;51.674;7.868;2023-06-14T14:29:56;2.08;;;1.63;;
9924;SDS011;5001;51.674;7.868;2023-06-14T14:32:23;2.03;;;1.75;;
9924;SDS011;5001;51.674;7.868;2023-06-14T14:34:50;2.97;;;1.70;;
9924;SDS011;5001;51.674;7.868;2023-06-14T14:37:17;1.65;;;1.50;;
9924;SDS011;5001;51.674;7.868;2023-06-14T14:39:45;2.38;;;1.80;;
9924;SDS011;5001;51.674;7.868;2023-06-14T14:42:12;2.13;;;1.90;;
9924;SDS011;5001;51.674;7.868;2023-06-14T14:44:39;2.20;;;1.67;;
9924;SDS011;5001;51.674;7.868;2023-06-14T14:47:06;2.05;;;1.50;;
9924;SDS011;5001;51.674;7.868;2023-06-14T14:49:33;5.13;;;1.60;;
9924;SDS011;5001;51.674;7.868;2023-06-14T14:52:01;2.03;;;1.73;;
9924;SDS011;5001;51.674;7.868;2023-06-14T14:54:48;1.70;;;1.50;;
9924;SDS011;5001;51.674;7.868;2023-06-14T14:57:16;2.05;;;1.67;;
9924;SDS011;5001;51.674;7.868;2023-06-14T14:59:43;1.60;;;1.50;;
9924;SDS011;5001;51.674;7.868;2023-06-14T15:02:10;2.65;;;1.80;;
9924;SDS011;5001;51.674;7.868;2023-06-14T15:04:37;3.50;;;1.67;;
9924;SDS011;5001;51.674;7.868;2023-06-14T15:07:04;1.73;;;1.50;;
9924;SDS011;5001;51.674;7.868;2023-06-14T15:09:32;1.88;;;1.42;;
9924;SDS011;5001;51.674;7.868;2023-06-14T15:11:59;1.92;;;1.80;;
9924;SDS011;5001;51.674;7.868;2023-06-14T15:14:26;2.45;;;1.67;;
9924;SDS011;5001;51.674;7.868;2023-06-14T15:16:54;5.03;;;1.83;;
9924;SDS011;5001;51.674;7.868;2023-06-14T15:19:21;1.80;;;1.70;;
9924;SDS011;5001;51.674;7.868;2023-06-14T15:21:48;2.20;;;1.80;;
9924;SDS011;5001;51.674;7.868;2023-06-14T15:24:15;1.75;;;1.65;;
9924;SDS011;5001;51.674;7.868;2023-06-14T15:26:52;2.97;;;1.83;;
9924;SDS011;5001;51.674;7.868;2023-06-14T15:29:19;3.65;;;1.95;;
9924;SDS011;5001;51.674;7.868;2023-06-14T15:31:46;1.92;;;1.50;;
9924;SDS011;5001;51.674;7.868;2023-06-14T15:34:14;3.20;;;1.77;;
9924;SDS011;5001;51.674;7.868;2023-06-14T15:36:41;3.65;;;1.70;;
9924;SDS011;5001;51.674;7.868;2023-06-14T15:39:08;2.40;;;1.77;;
9924;SDS011;5001;51.674;7.868;2023-06-14T15:41:35;2.05;;;1.73;;
9924;SDS011;5001;51.674;7.868;2023-06-14T15:44:02;1.70;;;1.60;;